createdAt,value
2023-05-04T00:01:27.297Z,4.30
2023-05-04T00:04:14.154Z,4.50
2023-05-04T00:06:59.572Z,4.32
2023-05-04T00:09:44.940Z,4.72
2023-05-04T00:12:30.700Z,4.65
2023-05-04T00:15:16.646Z,4.28
2023-05-04T00:18:02.282Z,4.55
2023-05-04T00:20:48.176Z,5.82
2023-05-04T00:23:33.754Z,5.00
2023-05-04T00:26:19.519Z,5.97
2023-05-04T00:29:05.593Z,6.05
2023-05-04T00:31:51.610Z,5.68
2023-05-04T00:34:36.865Z,6.22
2023-05-04T00:37:22.113Z,5.90
2023-05-04T00:40:09.058Z,5.32
2023-05-04T00:42:54.605Z,5.00
2023-05-04T00:45:41.072Z,5.97
2023-05-04T00:48:26.332Z,6.20
2023-05-04T00:51:14.205Z,5.20
2023-05-04T00:54:00.253Z,5.55
2023-05-04T00:56:46.139Z,5.40
2023-05-04T00:59:31.492Z,5.30
2023-05-04T01:02:16.962Z,5.68
2023-05-04T01:05:03.157Z,5.50
2023-05-04T01:08:07.536Z,6.78
2023-05-04T01:11:00.771Z,6.07
2023-05-04T01:13:49.477Z,6.55
2023-05-04T01:16:34.965Z,5.95
2023-05-04T01:19:20.583Z,6.85
2023-05-04T01:22:06.235Z,6.75
2023-05-04T01:24:51.503Z,6.63
2023-05-04T01:27:46.046Z,6.45
2023-05-04T01:30:44.907Z,6.28
2023-05-04T01:33:31.685Z,6.05
2023-05-04T01:36:17.703Z,6.72
2023-05-04T01:39:04.156Z,6.47
2023-05-04T01:41:51.895Z,6.55
2023-05-04T01:44:37.534Z,7.20
2023-05-04T01:47:23.269Z,6.85
2023-05-04T01:50:09.430Z,6.18
2023-05-04T01:52:54.969Z,6.40
2023-05-04T01:55:40.741Z,7.25
2023-05-04T01:58:27.258Z,7.13
2023-05-04T02:01:12.779Z,7.60
2023-05-04T02:03:58.205Z,6.70
2023-05-04T02:06:43.822Z,7.53
2023-05-04T02:09:29.590Z,7.18
2023-05-04T02:12:14.952Z,7.65
2023-05-04T02:15:00.217Z,7.35
2023-05-04T02:17:46.589Z,7.32
2023-05-04T02:20:31.756Z,7.47
2023-05-04T02:23:17.152Z,8.48
2023-05-04T02:26:02.594Z,7.05
2023-05-04T02:28:48.270Z,7.43
2023-05-04T02:31:34.238Z,7.75
2023-05-04T02:34:19.653Z,6.70
2023-05-04T02:37:08.182Z,7.28
2023-05-04T02:39:53.498Z,7.70
2023-05-04T02:42:38.965Z,7.75
2023-05-04T02:45:24.803Z,7.95
2023-05-04T02:48:10.389Z,6.95
2023-05-04T02:50:56.598Z,6.93
2023-05-04T02:53:42.091Z,7.57
2023-05-04T02:56:27.474Z,7.55
2023-05-04T02:59:13.032Z,7.63
2023-05-04T03:01:58.419Z,7.45
2023-05-04T03:04:44.007Z,7.13
2023-05-04T03:07:29.552Z,6.95
2023-05-04T03:10:15.301Z,7.38
2023-05-04T03:13:06.097Z,6.28
2023-05-04T03:15:51.663Z,7.55
2023-05-04T03:18:37.125Z,6.93
2023-05-04T03:21:24.016Z,7.72
2023-05-04T03:24:09.915Z,6.38
2023-05-04T03:26:55.546Z,7.18
2023-05-04T03:29:42.305Z,6.57
2023-05-04T03:32:28.168Z,6.57
2023-05-04T03:35:14.357Z,6.63
2023-05-04T03:38:01.203Z,7.05
2023-05-04T03:40:47.063Z,7.38
2023-05-04T03:43:33.053Z,7.20
2023-05-04T03:46:18.993Z,7.32
2023-05-04T03:49:04.761Z,7.72
2023-05-04T03:51:50.304Z,7.28
2023-05-04T03:54:35.766Z,7.13
2023-05-04T03:57:22.449Z,6.63
2023-05-04T04:00:09.189Z,7.45
2023-05-04T04:03:00.356Z,6.82
2023-05-04T04:05:47.823Z,6.93
2023-05-04T04:08:33.468Z,6.70
2023-05-04T04:11:18.684Z,6.72
2023-05-04T04:14:04.014Z,6.15
2023-05-04T04:16:49.545Z,6.57
2023-05-04T04:19:34.896Z,6.40
2023-05-04T04:22:20.386Z,6.63
2023-05-04T04:25:05.912Z,6.28
2023-05-04T04:27:51.669Z,6.15
2023-05-04T04:30:37.521Z,5.65
2023-05-04T04:33:22.855Z,7.47
2023-05-04T04:36:09.193Z,6.43
2023-05-04T04:38:54.552Z,7.13
2023-05-04T04:41:39.977Z,6.35
2023-05-04T04:44:25.374Z,6.28
2023-05-04T04:47:10.755Z,6.97
2023-05-04T04:49:56.449Z,6.93
2023-05-04T04:52:41.794Z,6.47
2023-05-04T04:55:27.263Z,7.72
2023-05-04T04:58:13.100Z,6.95
2023-05-04T05:00:58.927Z,7.57
2023-05-04T05:03:45.740Z,6.68
2023-05-04T05:06:31.482Z,7.28
2023-05-04T05:09:16.955Z,7.25
2023-05-04T05:12:02.645Z,7.03
2023-05-04T05:14:48.244Z,7.35
2023-05-04T05:17:35.691Z,8.40
2023-05-04T05:20:21.452Z,7.97
2023-05-04T05:23:06.645Z,8.43
2023-05-04T05:25:52.440Z,8.75
2023-05-04T05:28:38.027Z,8.63
2023-05-04T05:31:23.665Z,7.85
2023-05-04T05:34:09.363Z,7.97
2023-05-04T05:36:54.820Z,8.20
2023-05-04T05:39:40.482Z,8.82
2023-05-04T05:42:26.120Z,8.10
2023-05-04T05:45:11.749Z,7.68
2023-05-04T05:47:57.445Z,8.43
2023-05-04T05:50:42.854Z,7.55
2023-05-04T05:53:28.450Z,9.00
2023-05-04T05:56:14.906Z,9.07
2023-05-04T05:59:00.185Z,8.68
2023-05-04T06:01:45.712Z,8.40
2023-05-04T06:04:30.997Z,9.02
2023-05-04T06:07:16.492Z,8.23
2023-05-04T06:10:02.287Z,8.40
2023-05-04T06:12:47.940Z,8.02
2023-05-04T06:15:33.433Z,8.50
2023-05-04T06:18:20.209Z,8.48
2023-05-04T06:21:05.681Z,7.55
2023-05-04T06:23:51.098Z,8.00
2023-05-04T06:26:36.442Z,7.70
2023-05-04T06:29:22.675Z,7.43
2023-05-04T06:32:10.435Z,6.95
2023-05-04T06:34:56.299Z,7.95
2023-05-04T06:37:42.123Z,7.20
2023-05-04T06:40:27.480Z,7.60
2023-05-04T06:43:13.164Z,6.82
2023-05-04T06:46:05.022Z,6.57
2023-05-04T06:48:50.779Z,7.05
2023-05-04T06:51:37.771Z,6.75
2023-05-04T06:54:23.613Z,7.63
2023-05-04T06:57:09.026Z,6.85
2023-05-04T06:59:54.544Z,6.32
2023-05-04T07:02:40.032Z,6.20
2023-05-04T07:05:25.986Z,5.15
2023-05-04T07:08:12.584Z,6.25
2023-05-04T07:10:58.387Z,5.45
2023-05-04T07:13:43.797Z,6.68
2023-05-04T07:16:29.318Z,5.80
2023-05-04T07:19:14.598Z,5.70
2023-05-04T07:22:00.944Z,6.60
2023-05-04T07:24:46.841Z,6.75
2023-05-04T07:27:32.626Z,6.28
2023-05-04T07:30:20.533Z,6.15
2023-05-04T07:33:06.401Z,6.07
2023-05-04T07:36:00.086Z,5.70
2023-05-04T07:38:45.931Z,5.45
2023-05-04T07:41:31.724Z,5.60
2023-05-04T07:44:17.149Z,6.03
2023-05-04T07:47:02.923Z,5.88
2023-05-04T07:49:48.627Z,5.28
2023-05-04T07:52:33.818Z,5.28
2023-05-04T07:55:19.636Z,6.25
2023-05-04T07:58:05.476Z,5.57
2023-05-04T08:00:50.876Z,6.57
2023-05-04T08:03:36.489Z,5.60
2023-05-04T08:06:22.129Z,6.05
2023-05-04T08:09:08.105Z,6.65
2023-05-04T08:11:53.776Z,6.45
2023-05-04T08:14:40.556Z,6.65
2023-05-04T08:17:26.484Z,6.32
2023-05-04T08:20:12.286Z,5.40
2023-05-04T08:22:58.086Z,6.28
2023-05-04T08:25:43.642Z,8.18
2023-05-04T08:28:31.122Z,7.47
2023-05-04T08:31:18.798Z,7.57
2023-05-04T08:34:04.856Z,8.38
2023-05-04T08:36:50.865Z,9.10
2023-05-04T08:39:36.369Z,9.45
2023-05-04T08:42:29.829Z,8.68
2023-05-04T08:45:16.654Z,10.23
2023-05-04T08:48:02.251Z,8.98
2023-05-04T08:50:48.614Z,10.10
2023-05-04T08:53:36.519Z,10.02
2023-05-04T08:56:23.297Z,10.32
2023-05-04T08:59:20.002Z,10.25
2023-05-04T09:02:05.901Z,9.55
2023-05-04T09:04:52.879Z,10.35
2023-05-04T09:07:38.392Z,10.60
2023-05-04T09:10:26.344Z,10.73
2023-05-04T09:13:13.261Z,11.02
2023-05-04T09:15:59.179Z,10.77
2023-05-04T09:18:46.037Z,11.32
2023-05-04T09:21:32.510Z,10.32
2023-05-04T09:24:31.151Z,10.07
2023-05-04T09:27:19.613Z,11.05
2023-05-04T09:30:06.026Z,11.30
2023-05-04T09:32:53.194Z,10.30
2023-05-04T09:35:44.700Z,10.40
2023-05-04T09:38:34.948Z,12.70
2023-05-04T09:41:31.975Z,11.77
2023-05-04T09:44:22.531Z,11.32
2023-05-04T09:47:08.578Z,11.93
2023-05-04T09:49:54.385Z,10.50
2023-05-04T09:52:42.222Z,10.77
2023-05-04T09:55:28.592Z,10.35
2023-05-04T09:58:19.108Z,10.75
2023-05-04T10:01:05.914Z,11.57
2023-05-04T10:03:53.770Z,10.88
2023-05-04T10:06:39.353Z,11.43
2023-05-04T10:09:29.934Z,11.75
2023-05-04T10:12:15.824Z,11.52
2023-05-04T10:15:01.806Z,11.07
2023-05-04T10:18:25.168Z,10.93
2023-05-04T10:21:42.555Z,12.48
2023-05-04T10:24:55.409Z,10.50
2023-05-04T10:28:01.993Z,11.52
2023-05-04T10:30:47.630Z,10.93
2023-05-04T10:33:43.311Z,11.40
2023-05-04T10:36:36.707Z,10.63
2023-05-04T10:39:24.811Z,11.32
2023-05-04T10:42:10.025Z,11.43
2023-05-04T10:44:57.130Z,11.63
2023-05-04T10:47:42.759Z,9.60
2023-05-04T10:50:28.215Z,10.68
2023-05-04T10:53:15.201Z,10.52
2023-05-04T10:56:01.608Z,11.27
2023-05-04T10:58:47.231Z,10.65
2023-05-04T11:01:44.211Z,10.77
2023-05-04T11:04:30.537Z,9.30
2023-05-04T11:07:16.242Z,11.40
2023-05-04T11:10:02.203Z,9.75
2023-05-04T11:12:48.139Z,10.27
2023-05-04T11:15:44.453Z,11.35
2023-05-04T11:18:35.537Z,11.20
2023-05-04T11:21:27.776Z,10.43
2023-05-04T11:24:13.765Z,10.70
2023-05-04T11:26:59.255Z,11.45
2023-05-04T11:30:03.224Z,11.93
2023-05-04T11:32:51.860Z,11.30
2023-05-04T11:35:37.662Z,11.25
2023-05-04T11:38:23.354Z,11.40
2023-05-04T11:41:09.506Z,10.95
2023-05-04T11:43:55.187Z,12.02
2023-05-04T11:46:40.979Z,12.18
2023-05-04T11:49:27.746Z,13.40
2023-05-04T11:52:13.501Z,11.80
2023-05-04T11:54:59.259Z,11.98
2023-05-04T11:57:44.676Z,11.45
2023-05-04T12:00:43.960Z,12.52
2023-05-04T12:06:33.588Z,11.13
2023-05-04T12:09:19.167Z,12.05
2023-05-04T12:12:04.677Z,10.57
2023-05-04T12:14:52.224Z,12.35
2023-05-04T12:17:42.103Z,11.15
2023-05-04T12:20:29.468Z,11.18
2023-05-04T12:23:14.917Z,11.13
2023-05-04T12:26:00.253Z,10.40
2023-05-04T12:28:45.612Z,12.88
2023-05-04T12:31:31.024Z,10.25
2023-05-04T12:34:16.727Z,11.75
2023-05-04T12:37:02.274Z,12.20
2023-05-04T12:39:47.584Z,11.07
2023-05-04T12:42:33.060Z,11.45
2023-05-04T12:45:18.489Z,11.20
2023-05-04T12:48:04.113Z,11.77
2023-05-04T12:50:51.153Z,12.02
2023-05-04T12:53:36.907Z,11.40
2023-05-04T12:56:22.456Z,12.82
2023-05-04T12:59:07.867Z,11.95
2023-05-04T13:01:53.601Z,12.38
2023-05-04T13:04:40.227Z,11.98
2023-05-04T13:07:25.860Z,11.80
2023-05-04T13:10:11.334Z,11.82
2023-05-04T13:12:56.865Z,13.38
2023-05-04T13:15:42.810Z,13.05
2023-05-04T13:18:29.048Z,12.70
2023-05-04T13:21:14.544Z,13.35
2023-05-04T13:24:00.488Z,11.93
2023-05-04T13:26:46.136Z,13.23
2023-05-04T13:29:31.706Z,12.30
2023-05-04T13:32:17.111Z,12.63
2023-05-04T13:35:04.261Z,12.82
2023-05-04T13:37:49.673Z,11.80
2023-05-04T13:40:35.230Z,11.45
2023-05-04T13:43:21.817Z,10.25
2023-05-04T13:46:07.278Z,11.07
2023-05-04T13:48:54.174Z,11.50
2023-05-04T13:51:40.410Z,10.63
2023-05-04T13:54:27.674Z,10.57
2023-05-04T13:57:13.219Z,12.43
2023-05-04T14:00:06.962Z,11.27
2023-05-04T14:02:59.495Z,10.77
2023-05-04T14:05:45.303Z,11.43
2023-05-04T14:08:31.029Z,11.63
2023-05-04T14:11:16.394Z,11.13
2023-05-04T14:14:01.895Z,11.15
2023-05-04T14:16:47.285Z,11.70
2023-05-04T14:19:32.568Z,11.98
2023-05-04T14:22:18.071Z,12.23
2023-05-04T14:25:03.486Z,12.07
2023-05-04T14:27:49.142Z,12.25
2023-05-04T14:30:34.522Z,12.85
2023-05-04T14:33:19.783Z,12.43
2023-05-04T14:36:05.501Z,12.43
2023-05-04T14:38:51.144Z,12.18
2023-05-04T14:41:37.779Z,12.73
2023-05-04T14:44:24.827Z,12.38
2023-05-04T14:47:10.354Z,12.25
2023-05-04T14:49:56.116Z,12.20
2023-05-04T14:52:41.634Z,12.85
2023-05-04T14:55:26.883Z,13.30
2023-05-04T14:58:14.100Z,12.23
2023-05-04T15:00:59.512Z,13.73
2023-05-04T15:03:45.025Z,12.80
2023-05-04T15:06:32.821Z,12.52
2023-05-04T15:09:18.379Z,12.60
2023-05-04T15:12:04.787Z,13.55
2023-05-04T15:14:50.345Z,12.35
2023-05-04T15:17:36.005Z,13.65
2023-05-04T15:20:22.592Z,12.23
2023-05-04T15:23:11.630Z,13.30
2023-05-04T15:25:57.305Z,12.57
2023-05-04T15:28:42.890Z,12.82
2023-05-04T15:31:28.365Z,13.73
2023-05-04T15:34:16.189Z,13.40
2023-05-04T15:37:03.328Z,14.00
2023-05-04T15:39:48.683Z,12.90
2023-05-04T15:42:34.057Z,11.55
2023-05-04T15:45:19.583Z,13.07
2023-05-04T15:48:05.436Z,12.52
2023-05-04T15:50:51.121Z,13.57
2023-05-04T15:53:36.473Z,13.82
2023-05-04T15:56:22.395Z,12.20
2023-05-04T15:59:08.040Z,11.77
2023-05-04T16:01:53.896Z,12.55
2023-05-04T16:04:39.336Z,12.98
2023-05-04T16:07:24.729Z,11.38
2023-05-04T16:10:10.422Z,12.05
2023-05-04T16:12:56.703Z,11.18
2023-05-04T16:15:42.384Z,10.02
2023-05-04T16:18:28.010Z,10.52
2023-05-04T16:21:15.164Z,10.65
2023-05-04T16:24:00.845Z,11.38
2023-05-04T16:26:49.874Z,11.38
2023-05-04T16:29:35.435Z,10.43
2023-05-04T16:32:21.597Z,11.27
2023-05-04T16:35:08.225Z,10.95
2023-05-04T16:37:53.877Z,10.70
2023-05-04T16:40:41.629Z,10.52
2023-05-04T16:43:27.366Z,10.02
2023-05-04T16:46:12.808Z,9.68
2023-05-04T16:48:58.070Z,10.98
2023-05-04T16:51:43.649Z,10.88
2023-05-04T16:54:29.142Z,10.07
2023-05-04T16:57:14.604Z,10.52
2023-05-04T17:00:00.164Z,9.70
2023-05-04T17:02:45.594Z,11.05
2023-05-04T17:05:31.544Z,9.82
2023-05-04T17:08:17.588Z,9.27
2023-05-04T17:11:03.426Z,10.10
2023-05-04T17:13:48.894Z,9.85
2023-05-04T17:16:34.360Z,10.80
2023-05-04T17:19:19.969Z,9.95
2023-05-04T17:22:05.609Z,11.52
2023-05-04T17:24:51.200Z,10.23
2023-05-04T17:27:36.665Z,10.77
2023-05-04T17:30:22.637Z,10.85
2023-05-04T17:33:08.315Z,11.90
2023-05-04T17:35:54.196Z,12.68
2023-05-04T17:38:40.949Z,10.52
2023-05-04T17:41:26.836Z,11.73
2023-05-04T17:44:12.319Z,11.27
2023-05-04T17:46:57.690Z,11.95
2023-05-04T17:49:42.989Z,12.63
2023-05-04T17:52:28.404Z,11.90
2023-05-04T17:55:13.831Z,13.80
2023-05-04T17:57:59.282Z,14.93
2023-05-04T18:00:44.578Z,11.10
2023-05-04T18:03:29.912Z,12.50
2023-05-04T18:06:15.258Z,12.43
2023-05-04T18:09:01.015Z,12.82
2023-05-04T18:11:47.006Z,11.38
2023-05-04T18:14:32.744Z,12.35
2023-05-04T18:17:17.983Z,12.63
2023-05-04T18:20:05.003Z,12.50
2023-05-04T18:22:50.604Z,12.70
2023-05-04T18:25:37.540Z,11.52
2023-05-04T18:28:23.378Z,12.75
2023-05-04T18:31:09.048Z,12.63
2023-05-04T18:33:54.351Z,13.75
2023-05-04T18:36:39.820Z,13.57
2023-05-04T18:39:25.057Z,12.65
2023-05-04T18:42:10.590Z,12.68
2023-05-04T18:44:56.277Z,11.35
2023-05-04T18:47:41.873Z,12.50
2023-05-04T18:50:27.330Z,12.75
2023-05-04T18:53:12.639Z,12.73
2023-05-04T18:56:02.607Z,13.15
2023-05-04T18:58:48.322Z,11.50
2023-05-04T19:01:33.814Z,12.13
2023-05-04T19:04:19.710Z,11.40
2023-05-04T19:07:05.205Z,11.52
2023-05-04T19:09:50.799Z,11.98
2023-05-04T19:12:36.622Z,11.88
2023-05-04T19:15:23.131Z,11.88
2023-05-04T19:18:08.748Z,10.52
2023-05-04T19:20:54.697Z,9.95
2023-05-04T19:23:40.207Z,10.55
2023-05-04T19:26:25.893Z,10.05
2023-05-04T19:29:11.899Z,10.13
2023-05-04T19:31:59.532Z,9.95
2023-05-04T19:34:46.995Z,10.57
2023-05-04T19:37:32.833Z,11.13
2023-05-04T19:40:18.424Z,11.57
2023-05-04T19:43:04.633Z,12.93
2023-05-04T19:45:51.497Z,11.25
2023-05-04T19:48:37.154Z,10.75
2023-05-04T19:51:22.959Z,11.27
2023-05-04T19:54:11.233Z,10.77
2023-05-04T19:56:57.246Z,11.70
2023-05-04T19:59:44.252Z,10.48
2023-05-04T20:02:32.462Z,11.65
2023-05-04T20:05:18.057Z,11.85
2023-05-04T20:08:05.136Z,10.07
2023-05-04T20:10:51.099Z,11.43
2023-05-04T20:13:38.245Z,10.77
2023-05-04T20:16:24.044Z,11.25
2023-05-04T20:19:09.294Z,11.45
2023-05-04T20:21:54.634Z,11.00
2023-05-04T20:24:40.867Z,10.27
2023-05-04T20:27:26.135Z,10.85
2023-05-04T20:30:11.996Z,10.25
2023-05-04T20:32:57.603Z,11.88
2023-05-04T20:35:44.247Z,12.82
2023-05-04T20:38:29.892Z,11.90
2023-05-04T20:41:15.292Z,10.57
2023-05-04T20:44:00.931Z,11.43
2023-05-04T20:46:46.249Z,12.15
2023-05-04T20:49:31.605Z,12.18
2023-05-04T20:52:17.262Z,10.57
2023-05-04T20:55:02.725Z,11.45
2023-05-04T20:57:48.414Z,12.15
2023-05-04T21:00:34.044Z,10.93
2023-05-04T21:03:19.875Z,12.77
2023-05-04T21:06:06.075Z,11.52
2023-05-04T21:08:51.390Z,11.70
2023-05-04T21:11:36.744Z,10.68
2023-05-04T21:14:22.210Z,10.35
2023-05-04T21:17:08.146Z,11.27
2023-05-04T21:19:53.414Z,13.10
2023-05-04T21:22:38.689Z,14.18
2023-05-04T21:25:24.156Z,12.70
2023-05-04T21:28:09.665Z,12.63
2023-05-04T21:30:55.318Z,12.23
2023-05-04T21:33:41.178Z,12.82
2023-05-04T21:36:27.533Z,12.25
2023-05-04T21:39:14.253Z,12.63
2023-05-04T21:41:59.530Z,12.70
2023-05-04T21:44:45.067Z,12.70
2023-05-04T21:47:30.780Z,12.38
2023-05-04T21:50:16.467Z,14.93
2023-05-04T21:53:01.889Z,13.82
2023-05-04T21:55:47.257Z,13.30
2023-05-04T21:58:32.670Z,13.90
2023-05-04T22:01:18.462Z,14.30
2023-05-04T22:04:07.103Z,15.18
2023-05-04T22:06:52.842Z,14.77
2023-05-04T22:09:38.314Z,13.90
2023-05-04T22:12:23.606Z,15.35
2023-05-04T22:15:10.327Z,15.65
2023-05-04T22:17:56.080Z,14.40
2023-05-04T22:20:42.472Z,13.48
2023-05-04T22:23:27.844Z,13.43
2023-05-04T22:26:13.390Z,12.98
2023-05-04T22:28:59.046Z,12.60
2023-05-04T22:31:44.620Z,12.88
2023-05-04T22:34:30.029Z,11.18
2023-05-04T22:37:15.571Z,12.30
2023-05-04T22:40:06.626Z,11.45
2023-05-04T22:42:52.110Z,10.60
2023-05-04T22:45:38.462Z,10.25
2023-05-04T22:48:24.021Z,9.50
2023-05-04T22:51:09.745Z,8.27
2023-05-04T22:53:55.164Z,7.55
2023-05-04T22:56:40.527Z,7.63
2023-05-04T22:59:26.005Z,7.30
2023-05-04T23:02:12.243Z,6.30
2023-05-04T23:05:00.556Z,6.07
2023-05-04T23:07:45.970Z,6.03
2023-05-04T23:10:31.350Z,7.15
2023-05-04T23:13:16.934Z,6.55
2023-05-04T23:16:03.718Z,5.13
2023-05-04T23:18:49.309Z,7.18
2023-05-04T23:21:34.797Z,7.10
2023-05-04T23:24:20.358Z,5.38
2023-05-04T23:27:06.241Z,5.40
2023-05-04T23:29:51.721Z,5.07
2023-05-04T23:32:37.176Z,4.57
2023-05-04T23:35:22.643Z,5.45
2023-05-04T23:38:08.194Z,4.72
2023-05-04T23:40:54.076Z,4.13
2023-05-04T23:43:39.821Z,3.75
2023-05-04T23:46:25.180Z,2.85
2023-05-04T23:49:11.928Z,2.78
2023-05-04T23:51:57.300Z,2.20
2023-05-04T23:54:42.788Z,3.42
2023-05-04T23:57:28.855Z,3.08
